Time;durP1;ratioP1;P1;durP2;ratioP2;P2;SDS_P1;SDS_P2;PMS_P1;PMS_P2;Temp;Humidity;BMP_temperature;BMP_pressure;BME280_temperature;BME280_humidity;BME280_pressure;Samples;Min_cycle;Max_cycle;Signal;HPM_P1;HPM_P2
2023/09/19 00:01:20;;;;;;;5.43;4.18;;;20.90;99.90;;;;;;10355214;28;20255;-84
2023/09/19 00:06:26;;;;;;;8.10;5.97;;;20.70;99.90;;;;;;10405958;28;20325;-84
2023/09/19 00:11:28;;;;;;;7.40;6.70;;;20.70;99.90;;;;;;10358091;28;20294;-83
2023/09/19 00:16:32;;;;;;;6.45;4.55;;;20.80;99.90;;;;;;10372666;28;20244;-84
2023/09/19 00:21:37;;;;;;;5.75;5.15;;;20.60;99.90;;;;;;10371343;28;20282;-83
2023/09/19 00:26:40;;;;;;;5.45;4.95;;;20.50;99.90;;;;;;10371626;28;20286;-83
2023/09/19 00:31:45;;;;;;;5.38;4.60;;;20.40;99.90;;;;;;10354955;28;20236;-83
2023/09/19 00:36:48;;;;;;;5.85;5.30;;;20.30;99.90;;;;;;10379621;28;20346;-84
2023/09/19 00:41:50;;;;;;;7.65;6.43;;;20.50;99.90;;;;;;10384159;28;20336;-84
2023/09/19 00:46:53;;;;;;;8.90;6.95;;;20.80;99.90;;;;;;10354255;28;20324;-83
2023/09/19 00:51:56;;;;;;;5.38;4.43;;;20.90;99.90;;;;;;10383343;28;20235;-83
2023/09/19 00:56:58;;;;;;;5.38;3.92;;;20.80;99.90;;;;;;10376844;28;20673;-84
2023/09/19 01:02:02;;;;;;;7.75;4.07;;;20.60;99.90;;;;;;10401446;28;20672;-84
2023/09/19 01:07:08;;;;;;;4.50;3.58;;;20.50;99.90;;;;;;10352482;28;20329;-84
2023/09/19 01:12:15;;;;;;;4.55;4.15;;;20.30;99.90;;;;;;10378599;28;20294;-84
2023/09/19 01:17:32;;;;;;;5.15;4.65;;;20.30;99.90;;;;;;10353064;28;20244;-84
2023/09/19 01:22:41;;;;;;;5.85;5.28;;;20.20;99.90;;;;;;10371056;28;20247;-84
2023/09/19 01:28:05;;;;;;;6.47;4.80;;;20.30;99.90;;;;;;10359461;28;20227;-84
2023/09/19 01:33:10;;;;;;;8.70;5.88;;;20.30;99.90;;;;;;10410636;28;20591;-84
2023/09/19 01:38:14;;;;;;;7.75;4.80;;;20.40;99.90;;;;;;10392001;28;20630;-84
2023/09/19 01:43:21;;;;;;;6.20;5.25;;;20.60;99.90;;;;;;10396070;28;20301;-84
2023/09/19 01:48:42;;;;;;;6.30;5.45;;;20.60;99.90;;;;;;10369374;28;20254;-83
2023/09/19 01:53:48;;;;;;;8.82;5.07;;;20.70;99.90;;;;;;10356848;28;20235;-83
2023/09/19 01:58:56;;;;;;;7.10;6.40;;;20.60;99.90;;;;;;10360487;28;20768;-83
2023/09/19 02:03:59;;;;;;;5.97;5.43;;;20.50;99.90;;;;;;10376010;28;20273;-83
2023/09/19 02:09:02;;;;;;;7.72;5.82;;;20.60;99.90;;;;;;10391386;28;20293;-83
2023/09/19 02:14:08;;;;;;;6.28;5.68;;;20.70;99.90;;;;;;10387922;28;20234;-83
2023/09/19 02:19:11;;;;;;;6.43;5.82;;;20.70;99.90;;;;;;10389415;28;20247;-83
2023/09/19 02:24:15;;;;;;;3.58;3.22;;;20.40;99.90;;;;;;10390955;28;20247;-83
2023/09/19 02:29:17;;;;;;;4.03;3.70;;;20.10;99.90;;;;;;10407135;28;20247;-83
2023/09/19 02:34:20;;;;;;;5.03;3.33;;;19.80;99.90;;;;;;10365280;28;20252;-83
2023/09/19 02:39:23;;;;;;;7.40;2.40;;;19.50;99.90;;;;;;10367298;28;20836;-83
2023/09/19 02:44:26;;;;;;;3.75;2.70;;;19.30;99.90;;;;;;10385277;28;20320;-83
2023/09/19 02:49:29;;;;;;;3.88;2.70;;;19.10;99.90;;;;;;10375989;28;20259;-83
2023/09/19 02:54:31;;;;;;;7.07;2.95;;;19.00;99.90;;;;;;10384578;28;20235;-82
2023/09/19 02:59:37;;;;;;;3.80;2.90;;;19.00;99.90;;;;;;10349486;28;20220;-82
2023/09/19 03:04:40;;;;;;;6.32;3.58;;;18.90;99.90;;;;;;10348632;28;20337;-83
2023/09/19 03:09:43;;;;;;;5.63;4.55;;;18.80;99.90;;;;;;10365839;28;20790;-83
2023/09/19 03:14:45;;;;;;;5.45;2.63;;;19.00;99.90;;;;;;10348368;28;20236;-83
2023/09/19 03:19:48;;;;;;;3.72;3.22;;;19.00;99.90;;;;;;10371813;28;20668;-83
2023/09/19 03:24:52;;;;;;;4.13;3.83;;;18.80;99.90;;;;;;10356465;28;20385;-83
2023/09/19 03:29:55;;;;;;;5.25;4.78;;;18.90;99.90;;;;;;10355643;28;20262;-83
2023/09/19 03:34:58;;;;;;;4.45;3.63;;;18.90;99.90;;;;;;10374138;28;20624;-83
2023/09/19 03:40:04;;;;;;;5.75;5.20;;;19.10;99.90;;;;;;10374250;28;21038;-83
2023/09/19 03:45:11;;;;;;;5.40;5.00;;;19.20;99.90;;;;;;10390243;28;20320;-83
2023/09/19 03:50:19;;;;;;;5.15;3.75;;;19.20;99.90;;;;;;10395594;28;20231;-83
2023/09/19 03:55:21;;;;;;;5.10;4.65;;;19.30;99.90;;;;;;10373535;28;20594;-83
2023/09/19 04:00:26;;;;;;;6.88;5.47;;;19.10;99.90;;;;;;10356693;28;20286;-83
2023/09/19 04:05:28;;;;;;;4.97;4.53;;;19.30;99.90;;;;;;10413809;28;20263;-83
2023/09/19 04:10:31;;;;;;;5.00;4.38;;;19.40;99.90;;;;;;10357897;28;20232;-83
2023/09/19 04:15:33;;;;;;;7.07;4.00;;;19.20;99.90;;;;;;10372365;28;20244;-83
2023/09/19 04:20:36;;;;;;;6.28;4.30;;;18.90;99.90;;;;;;10364624;28;20240;-83
2023/09/19 04:25:40;;;;;;;5.65;5.10;;;19.00;99.90;;;;;;10384168;28;20314;-83
2023/09/19 04:30:43;;;;;;;4.55;3.95;;;19.10;99.90;;;;;;10371591;28;20239;-83
2023/09/19 04:35:49;;;;;;;3.95;3.58;;;19.00;99.90;;;;;;10371600;28;20235;-83
2023/09/19 04:40:58;;;;;;;6.55;4.20;;;19.00;99.90;;;;;;10400671;28;20266;-82
2023/09/19 04:46:00;;;;;;;7.95;5.82;;;18.60;99.90;;;;;;10384418;28;20309;-82
2023/09/19 04:51:03;;;;;;;9.82;5.05;;;18.60;99.90;;;;;;10383296;28;20662;-82
2023/09/19 04:56:07;;;;;;;4.68;4.20;;;18.70;99.90;;;;;;10356461;28;20231;-82
2023/09/19 05:01:12;;;;;;;4.97;4.55;;;19.00;99.90;;;;;;10360590;28;20247;-83
2023/09/19 05:06:14;;;;;;;9.57;4.30;;;19.00;99.90;;;;;;10391346;28;20659;-83
2023/09/19 05:11:22;;;;;;;5.88;4.53;;;19.00;99.90;;;;;;10352118;28;20236;-83
2023/09/19 05:16:25;;;;;;;5.05;4.55;;;18.90;99.90;;;;;;10380816;28;20738;-83
2023/09/19 05:21:30;;;;;;;4.00;3.03;;;19.00;99.90;;;;;;10393092;28;20278;-81
2023/09/19 05:26:33;;;;;;;4.85;2.40;;;19.20;99.90;;;;;;10389276;28;20329;-83
2023/09/19 05:31:40;;;;;;;2.85;2.20;;;19.50;99.90;;;;;;10386639;28;20239;-83
2023/09/19 05:36:48;;;;;;;3.25;2.55;;;19.70;99.90;;;;;;10373083;28;20227;-82
2023/09/19 05:41:51;;;;;;;6.05;3.40;;;19.50;99.90;;;;;;10368994;28;20286;-83
2023/09/19 05:46:56;;;;;;;6.45;2.55;;;19.50;99.90;;;;;;10387150;28;20732;-83
2023/09/19 05:52:00;;;;;;;3.92;1.92;;;19.70;99.90;;;;;;10388026;28;20710;-82
2023/09/19 05:57:03;;;;;;;4.13;2.30;;;19.90;99.90;;;;;;10367013;28;20227;-82
2023/09/19 06:02:06;;;;;;;3.00;1.83;;;20.00;99.90;;;;;;10383333;28;20698;-83
2023/09/19 06:07:09;;;;;;;3.72;2.40;;;20.30;99.90;;;;;;10372555;28;20250;-82
2023/09/19 06:12:12;;;;;;;3.15;2.10;;;20.30;99.90;;;;;;10397158;28;20227;-82
2023/09/19 06:17:15;;;;;;;3.00;2.03;;;20.50;99.90;;;;;;10378733;28;20268;-82
2023/09/19 06:22:18;;;;;;;3.78;1.35;;;20.90;99.90;;;;;;10384492;28;20235;-83
2023/09/19 06:27:21;;;;;;;1.73;1.40;;;21.00;99.90;;;;;;10349985;28;20317;-83
2023/09/19 06:32:28;;;;;;;2.67;1.52;;;21.10;99.90;;;;;;10393445;28;20235;-82
2023/09/19 06:37:31;;;;;;;3.63;2.38;;;21.20;99.90;;;;;;10386255;28;20290;-84
2023/09/19 06:42:36;;;;;;;4.38;2.60;;;20.80;99.90;;;;;;10367245;28;20240;-83
2023/09/19 06:47:39;;;;;;;7.30;3.22;;;21.10;99.90;;;;;;10365977;28;20382;-84
2023/09/19 06:52:42;;;;;;;3.53;2.00;;;21.00;99.90;;;;;;10381386;28;20635;-84
2023/09/19 06:57:48;;;;;;;2.38;1.55;;;20.80;99.90;;;;;;10366541;28;20297;-84
2023/09/19 07:03:13;;;;;;;2.92;1.40;;;20.90;99.90;;;;;;10348214;28;20294;-84
2023/09/19 07:08:16;;;;;;;5.05;2.92;;;20.90;99.90;;;;;;10375495;28;20259;-84
2023/09/19 07:13:18;;;;;;;4.80;1.80;;;21.00;99.90;;;;;;10388844;28;20242;-84
2023/09/19 07:18:21;;;;;;;2.17;1.55;;;21.10;99.90;;;;;;10406484;28;20242;-84
2023/09/19 07:23:26;;;;;;;2.75;1.88;;;21.20;99.90;;;;;;10405956;28;20791;-84
2023/09/19 07:28:28;;;;;;;6.18;2.22;;;21.20;99.90;;;;;;10406982;28;20920;-84
2023/09/19 07:33:32;;;;;;;3.60;1.95;;;21.20;99.90;;;;;;10403980;28;20680;-84
2023/09/19 07:38:35;;;;;;;4.53;2.85;;;21.40;99.60;;;;;;10405874;28;20305;-84
2023/09/19 07:43:40;;;;;;;3.05;2.20;;;21.40;99.60;;;;;;10387533;28;20262;-83
2023/09/19 07:48:47;;;;;;;5.55;1.88;;;21.50;99.40;;;;;;10371984;28;20698;-84
2023/09/19 07:53:50;;;;;;;5.47;2.38;;;21.50;98.60;;;;;;10406628;28;20242;-84
2023/09/19 07:58:52;;;;;;;1.80;1.33;;;21.40;98.80;;;;;;10352385;28;20239;-84
2023/09/19 08:03:55;;;;;;;2.30;1.13;;;21.50;98.70;;;;;;10367183;28;20290;-84
2023/09/19 08:09:00;;;;;;;1.55;1.45;;;21.90;97.20;;;;;;10387272;28;20332;-84
2023/09/19 08:14:03;;;;;;;3.42;1.90;;;22.00;96.70;;;;;;10394654;28;20247;-84
2023/09/19 08:19:06;;;;;;;3.65;1.70;;;22.20;96.10;;;;;;10395709;28;20227;-84
2023/09/19 08:24:09;;;;;;;1.40;1.30;;;22.20;95.80;;;;;;10395126;28;20259;-84
2023/09/19 08:29:12;;;;;;;3.28;1.90;;;22.10;96.00;;;;;;10412200;28;20308;-84
2023/09/19 08:34:15;;;;;;;2.88;1.42;;;22.10;95.90;;;;;;10374139;28;20240;-84
2023/09/19 08:39:19;;;;;;;2.72;1.60;;;22.20;94.60;;;;;;10372015;28;20247;-85
2023/09/19 08:44:21;;;;;;;2.83;1.38;;;22.10;94.50;;;;;;10384051;28;20325;-85
2023/09/19 08:49:36;;;;;;;6.10;1.30;;;22.30;95.30;;;;;;10412666;28;20285;-85
2023/09/19 08:54:41;;;;;;;1.52;1.10;;;22.80;93.70;;;;;;10394648;28;20285;-84
2023/09/19 08:59:44;;;;;;;0.80;0.70;;;23.10;92.60;;;;;;10389198;28;20296;-84
2023/09/19 09:04:49;;;;;;;3.13;1.30;;;23.20;92.00;;;;;;10367568;28;20322;-84
2023/09/19 09:09:53;;;;;;;2.90;1.40;;;23.50;90.50;;;;;;10409988;28;20231;-84
2023/09/19 09:14:57;;;;;;;2.33;0.90;;;23.50;89.60;;;;;;10407153;28;20243;-84
2023/09/19 09:19:59;;;;;;;2.65;1.23;;;23.70;89.80;;;;;;10392462;28;20743;-84
2023/09/19 09:25:04;;;;;;;9.95;1.48;;;23.90;89.70;;;;;;10367148;28;20306;-84
2023/09/19 09:30:07;;;;;;;3.03;1.23;;;23.90;85.40;;;;;;10368723;28;20247;-84
2023/09/19 09:35:10;;;;;;;2.75;1.35;;;23.40;87.30;;;;;;10363427;28;20250;-84
2023/09/19 09:45:37;;;;;;;1.73;1.05;;;23.30;87.10;;;;;;10398455;28;20251;-84
2023/09/19 09:51:01;;;;;;;2.53;1.05;;;23.20;87.70;;;;;;10402274;28;20664;-84
2023/09/19 09:56:13;;;;;;;4.55;1.38;;;23.40;90.00;;;;;;10400336;28;20290;-84
2023/09/19 10:01:17;;;;;;;0.95;0.85;;;23.60;86.70;;;;;;10369784;28;20298;-84
2023/09/19 10:06:27;;;;;;;1.30;0.60;;;23.80;86.50;;;;;;10369812;28;20267;-84
2023/09/19 10:11:30;;;;;;;2.83;1.65;;;23.80;85.10;;;;;;10372985;28;20258;-84
2023/09/19 10:16:37;;;;;;;3.60;1.35;;;23.30;84.10;;;;;;10387608;28;20239;-84
2023/09/19 10:21:39;;;;;;;2.65;1.50;;;23.50;84.20;;;;;;10365405;28;20231;-84
2023/09/19 10:26:43;;;;;;;4.07;1.35;;;23.40;81.30;;;;;;10388894;28;20255;-84
2023/09/19 10:31:48;;;;;;;1.73;1.13;;;23.70;79.90;;;;;;10390282;28;20741;-84
2023/09/19 10:36:52;;;;;;;3.63;1.40;;;23.80;80.60;;;;;;10389375;28;20239;-84
2023/09/19 10:41:58;;;;;;;1.73;0.95;;;23.80;75.50;;;;;;10366213;28;20236;-84
2023/09/19 10:47:02;;;;;;;2.63;1.27;;;24.00;83.20;;;;;;10349159;28;20337;-84
2023/09/19 10:52:12;;;;;;;1.10;0.90;;;23.90;74.40;;;;;;10366520;28;20259;-84
2023/09/19 10:57:21;;;;;;;1.58;1.15;;;23.90;78.80;;;;;;10366105;28;20290;-84
2023/09/19 11:02:25;;;;;;;3.17;0.98;;;23.80;83.40;;;;;;10367153;28;20298;-84
2023/09/19 11:07:30;;;;;;;4.63;1.42;;;23.90;70.60;;;;;;10406265;28;20270;-84
2023/09/19 11:12:35;;;;;;;2.17;1.30;;;24.10;79.00;;;;;;10406607;28;20277;-84
2023/09/19 11:17:42;;;;;;;1.13;0.82;;;24.20;80.20;;;;;;10404911;28;20301;-84
2023/09/19 11:22:57;;;;;;;1.70;0.80;;;24.30;73.50;;;;;;10394099;28;20240;-84
2023/09/19 11:28:05;;;;;;;4.22;1.85;;;24.20;54.90;;;;;;10405905;28;20262;-84
2023/09/19 11:38:43;;;;;;;3.55;1.15;;;23.70;62.10;;;;;;10368211;28;20231;-84
2023/09/19 11:43:58;;;;;;;1.77;0.95;;;23.40;64.60;;;;;;10399142;28;20262;-84
2023/09/19 11:49:12;;;;;;;2.85;0.88;;;23.20;74.90;;;;;;10380545;28;20235;-84
2023/09/19 11:54:31;;;;;;;1.50;1.08;;;23.30;74.40;;;;;;10395140;28;20281;-84
2023/09/19 11:59:39;;;;;;;2.72;1.63;;;23.70;76.00;;;;;;10385758;28;20235;-84
2023/09/19 12:04:48;;;;;;;2.60;1.67;;;23.70;64.80;;;;;;10372205;28;20267;-84
2023/09/19 12:10:06;;;;;;;2.70;1.50;;;23.50;64.50;;;;;;10370476;28;20296;-84
2023/09/19 12:15:08;;;;;;;2.13;1.40;;;23.10;58.20;;;;;;10411455;28;20243;-84
2023/09/19 12:20:14;;;;;;;1.92;1.33;;;23.20;77.80;;;;;;10373136;28;20236;-84
2023/09/19 12:25:18;;;;;;;2.65;1.50;;;23.40;69.50;;;;;;10357384;28;20325;-84
2023/09/19 12:30:27;;;;;;;2.35;1.13;;;23.30;61.80;;;;;;10373170;28;20703;-84
2023/09/19 12:35:35;;;;;;;2.10;1.38;;;23.40;71.70;;;;;;10397133;28;20358;-84
2023/09/19 12:40:42;;;;;;;1.88;1.30;;;23.40;69.60;;;;;;10369398;28;20247;-82
2023/09/19 12:45:45;;;;;;;4.97;1.98;;;23.60;66.70;;;;;;10409321;28;20612;-84
2023/09/19 12:51:05;;;;;;;2.17;1.63;;;23.40;51.70;;;;;;10411423;28;20231;-84
2023/09/19 12:56:17;;;;;;;2.63;1.88;;;23.30;50.80;;;;;;10392473;28;20262;-83
2023/09/19 13:01:22;;;;;;;2.72;1.98;;;23.20;46.80;;;;;;10392784;28;20243;-84
2023/09/19 13:06:43;;;;;;;3.15;1.95;;;23.20;49.80;;;;;;10392797;28;20325;-84
2023/09/19 13:11:47;;;;;;;2.97;2.10;;;23.30;43.70;;;;;;10393120;28;20227;-84
2023/09/19 13:17:03;;;;;;;2.95;2.22;;;23.20;50.20;;;;;;10409698;28;20305;-84
2023/09/19 13:22:42;;;;;;;2.72;1.73;;;23.10;49.20;;;;;;10410723;28;20284;-84
2023/09/19 13:27:51;;;;;;;1.92;1.52;;;23.20;46.40;;;;;;10388178;28;20251;-90
2023/09/19 13:33:11;;;;;;;2.63;2.08;;;23.30;36.70;;;;;;10368368;28;20281;-89
2023/09/19 13:38:14;;;;;;;3.45;1.85;;;23.30;36.30;;;;;;10352959;28;20243;-91
2023/09/19 13:43:17;;;;;;;3.22;1.63;;;23.30;36.10;;;;;;10373742;28;20290;-90
2023/09/19 13:48:21;;;;;;;3.92;1.45;;;23.50;38.50;;;;;;10351086;28;20838;-91
2023/09/19 13:53:25;;;;;;;2.28;1.92;;;23.60;38.60;;;;;;10368717;28;20239;-90
2023/09/19 13:58:29;;;;;;;2.00;1.67;;;23.70;38.20;;;;;;10368180;28;20244;-90
2023/09/19 14:03:31;;;;;;;2.75;2.25;;;23.90;40.90;;;;;;10371943;28;20297;-89
2023/09/19 14:08:35;;;;;;;3.70;1.67;;;24.10;40.40;;;;;;10408717;28;20278;-90
2023/09/19 14:13:37;;;;;;;2.25;1.52;;;24.00;38.30;;;;;;10368276;28;20236;-90
2023/09/19 14:18:40;;;;;;;2.55;1.45;;;23.80;43.30;;;;;;10382815;28;20748;-90
2023/09/19 14:23:43;;;;;;;2.20;1.80;;;24.00;46.20;;;;;;10407812;28;20252;-89
2023/09/19 14:28:46;;;;;;;2.95;1.88;;;23.90;44.20;;;;;;10389178;28;20254;-91
2023/09/19 14:33:56;;;;;;;2.03;1.60;;;23.60;44.10;;;;;;10376921;28;20600;-90
2023/09/19 14:38:59;;;;;;;2.20;1.92;;;23.70;47.10;;;;;;10349647;28;20244;-91
2023/09/19 14:44:03;;;;;;;2.00;1.65;;;23.70;46.70;;;;;;10367221;28;20325;-90
2023/09/19 14:49:06;;;;;;;2.53;1.55;;;23.80;43.70;;;;;;10367084;28;20322;-89
2023/09/19 14:54:09;;;;;;;2.92;1.83;;;24.00;49.30;;;;;;10367657;28;20258;-89
2023/09/19 14:59:12;;;;;;;2.95;2.00;;;24.10;43.50;;;;;;10366388;28;20240;-91
2023/09/19 15:04:15;;;;;;;2.22;1.58;;;24.20;45.00;;;;;;10367160;28;20642;-90
2023/09/19 15:09:19;;;;;;;2.47;1.88;;;23.90;44.60;;;;;;10367396;28;20560;-90
2023/09/19 15:14:22;;;;;;;4.00;2.08;;;23.80;35.40;;;;;;10369132;28;20216;-91
2023/09/19 15:19:24;;;;;;;2.33;1.70;;;23.60;40.70;;;;;;10374136;28;20294;-90
2023/09/19 15:24:27;;;;;;;2.13;1.63;;;23.50;43.30;;;;;;10357097;28;20623;-92
2023/09/19 15:29:30;;;;;;;3.90;1.90;;;23.50;48.20;;;;;;10395412;28;20250;-91
2023/09/19 15:34:33;;;;;;;2.05;1.60;;;23.30;42.90;;;;;;10386266;28;20285;-92
2023/09/19 15:39:36;;;;;;;3.00;2.20;;;23.30;49.50;;;;;;10376573;28;20231;-90
2023/09/19 15:44:40;;;;;;;3.40;1.42;;;23.20;49.20;;;;;;10354678;28;20224;-89
2023/09/19 15:49:44;;;;;;;1.58;1.23;;;23.00;55.60;;;;;;10370603;28;20231;-91
2023/09/19 15:54:54;;;;;;;1.50;1.40;;;23.20;60.50;;;;;;10383839;28;20227;-90
2023/09/19 15:59:57;;;;;;;2.63;2.10;;;23.30;55.50;;;;;;10382284;28;20221;-92
2023/09/19 16:05:00;;;;;;;2.75;1.88;;;23.20;53.70;;;;;;10395379;28;20619;-92
2023/09/19 16:10:04;;;;;;;1.88;1.52;;;23.40;56.30;;;;;;10395916;28;20279;-90
2023/09/19 16:15:10;;;;;;;2.42;2.10;;;23.30;56.00;;;;;;10394529;28;20303;-91
2023/09/19 16:20:13;;;;;;;2.42;1.30;;;23.10;54.70;;;;;;10362590;28;20615;-92
2023/09/19 16:25:16;;;;;;;2.13;1.80;;;22.90;50.90;;;;;;10392852;28;20251;-91
2023/09/19 16:30:19;;;;;;;1.45;1.25;;;22.80;57.80;;;;;;10396055;28;20257;-92
2023/09/19 16:35:22;;;;;;;7.28;2.45;;;22.70;51.80;;;;;;10388797;28;20220;-93
2023/09/19 16:40:25;;;;;;;2.22;1.90;;;22.50;58.70;;;;;;10387474;28;20207;-92
2023/09/19 16:45:28;;;;;;;2.75;1.88;;;22.20;55.10;;;;;;10385515;28;21382;-91
2023/09/19 16:50:33;;;;;;;2.22;1.85;;;21.90;61.00;;;;;;10373261;28;20307;-92
2023/09/19 16:55:36;;;;;;;4.45;2.17;;;21.90;60.50;;;;;;10394562;28;20265;-91
2023/09/19 17:00:39;;;;;;;1.70;1.60;;;21.90;61.50;;;;;;10386352;28;20261;-91
2023/09/19 17:05:41;;;;;;;3.70;2.10;;;21.70;67.10;;;;;;10390775;28;20264;-92
2023/09/19 17:10:46;;;;;;;1.88;1.52;;;21.60;64.20;;;;;;10341494;28;20203;-91
2023/09/19 17:15:59;;;;;;;2.00;1.50;;;21.30;63.80;;;;;;10384641;28;20261;-90
2023/09/19 17:21:05;;;;;;;3.75;2.30;;;21.10;72.10;;;;;;10400209;28;20250;-90
2023/09/19 17:26:10;;;;;;;2.53;2.33;;;20.90;67.70;;;;;;10374315;28;20747;-90
2023/09/19 17:31:21;;;;;;;1.95;1.65;;;20.60;68.50;;;;;;10375185;28;20739;-90
2023/09/19 17:36:27;;;;;;;4.20;2.35;;;20.40;68.80;;;;;;10389471;28;20731;-91
2023/09/19 17:41:29;;;;;;;9.27;3.40;;;19.90;66.00;;;;;;10400675;28;20239;-91
2023/09/19 17:46:34;;;;;;;3.28;2.47;;;18.90;68.70;;;;;;10350444;28;20792;-89
2023/09/19 17:51:37;;;;;;;3.42;2.35;;;18.30;73.40;;;;;;10361762;28;20295;-90
2023/09/19 17:56:49;;;;;;;4.63;2.55;;;17.70;83.40;;;;;;10404495;28;20247;-90
2023/09/19 18:01:52;;;;;;;6.57;2.92;;;17.30;89.50;;;;;;10373487;28;20690;-91
2023/09/19 18:06:55;;;;;;;4.35;2.63;;;17.20;92.00;;;;;;10379777;28;20314;-91
2023/09/19 18:11:58;;;;;;;3.83;2.17;;;17.30;94.70;;;;;;10349982;28;20621;-91
2023/09/19 18:17:00;;;;;;;5.38;3.28;;;17.20;95.10;;;;;;10367899;28;21549;-91
2023/09/19 18:22:04;;;;;;;8.75;3.60;;;17.10;94.80;;;;;;10395697;28;20617;-91
2023/09/19 18:27:08;;;;;;;10.90;3.30;;;17.10;94.80;;;;;;10386678;28;20255;-92
2023/09/19 18:32:11;;;;;;;5.38;3.05;;;16.90;95.60;;;;;;10407582;28;20290;-90
2023/09/19 18:37:13;;;;;;;12.43;4.28;;;16.70;96.80;;;;;;10388151;28;20693;-90
2023/09/19 18:42:16;;;;;;;4.90;2.83;;;16.70;97.80;;;;;;10372189;28;20231;-89
2023/09/19 18:47:22;;;;;;;3.92;2.53;;;17.00;99.70;;;;;;10354138;28;20307;-91
2023/09/19 18:52:26;;;;;;;5.38;2.60;;;17.40;96.60;;;;;;10356761;28;20239;-90
2023/09/19 18:57:29;;;;;;;5.85;2.65;;;17.40;98.30;;;;;;10389119;28;20235;-91
2023/09/19 19:02:32;;;;;;;10.05;3.90;;;17.50;97.10;;;;;;10389871;28;20243;-90
2023/09/19 19:07:35;;;;;;;4.40;2.90;;;17.40;96.00;;;;;;10390305;28;20267;-90
2023/09/19 19:12:38;;;;;;;4.50;2.67;;;17.10;95.80;;;;;;10388487;28;20258;-90
2023/09/19 19:17:42;;;;;;;6.78;2.92;;;17.10;96.30;;;;;;10351534;28;20270;-90
2023/09/19 19:22:45;;;;;;;4.47;2.40;;;17.30;95.50;;;;;;10376863;28;20297;-90
2023/09/19 19:27:49;;;;;;;5.43;3.60;;;17.50;96.20;;;;;;10389404;28;20289;-91
2023/09/19 19:32:54;;;;;;;5.30;2.60;;;17.40;92.70;;;;;;10388245;28;20731;-91
2023/09/19 19:37:57;;;;;;;4.28;2.63;;;17.10;93.90;;;;;;10374430;28;20713;-91
2023/09/19 19:43:05;;;;;;;4.82;2.75;;;16.70;95.70;;;;;;10382867;28;20231;-92
2023/09/19 19:48:08;;;;;;;5.55;3.47;;;16.30;95.90;;;;;;10394758;28;20333;-91
2023/09/19 19:53:12;;;;;;;6.45;3.30;;;16.00;95.80;;;;;;10371390;28;20710;-91
2023/09/19 19:58:14;;;;;;;8.15;2.80;;;15.60;97.50;;;;;;10373747;28;20235;-92
2023/09/19 20:03:17;;;;;;;6.85;2.95;;;15.30;98.20;;;;;;10398531;28;20240;-92
2023/09/19 20:08:20;;;;;;;5.00;3.30;;;15.30;99.90;;;;;;10378823;28;20637;-91
2023/09/19 20:13:22;;;;;;;7.97;3.78;;;15.40;99.90;;;;;;10400873;28;20572;-92
2023/09/19 20:18:32;;;;;;;5.20;3.42;;;15.30;99.90;;;;;;10391766;28;20285;-93
2023/09/19 20:23:38;;;;;;;3.05;2.53;;;15.10;99.50;;;;;;10375812;28;20262;-91
2023/09/19 20:28:43;;;;;;;5.82;3.42;;;15.00;99.90;;;;;;10376485;28;20687;-92
2023/09/19 20:33:49;;;;;;;4.88;3.05;;;15.20;99.90;;;;;;10375723;28;20663;-91
2023/09/19 20:38:54;;;;;;;9.00;3.90;;;15.00;99.90;;;;;;10380906;28;20261;-92
2023/09/19 20:43:58;;;;;;;7.28;3.97;;;14.90;99.90;;;;;;10373351;28;20764;-91
2023/09/19 20:49:01;;;;;;;6.60;3.25;;;14.60;99.90;;;;;;10373745;28;20301;-92
2023/09/19 20:54:08;;;;;;;7.75;3.65;;;14.40;99.90;;;;;;10389831;28;20236;-91
2023/09/19 20:59:11;;;;;;;11.45;3.70;;;14.60;99.90;;;;;;10384676;28;20301;-92
2023/09/19 21:04:14;;;;;;;3.72;2.53;;;14.50;99.90;;;;;;10358253;28;20292;-92
2023/09/19 21:09:17;;;;;;;5.20;3.45;;;14.20;99.90;;;;;;10368579;28;20684;-91
2023/09/19 21:14:19;;;;;;;4.22;3.00;;;14.10;99.90;;;;;;10378738;28;20310;-91
2023/09/19 21:19:22;;;;;;;7.50;3.40;;;14.00;99.90;;;;;;10396784;28;20240;-92
2023/09/19 21:24:30;;;;;;;10.02;3.65;;;13.80;99.90;;;;;;10353903;28;20301;-92
2023/09/19 21:29:34;;;;;;;8.73;3.75;;;13.90;99.90;;;;;;10397982;28;20313;-92
2023/09/19 21:34:36;;;;;;;11.80;3.70;;;14.00;99.90;;;;;;10403568;28;20273;-92
2023/09/19 21:39:39;;;;;;;11.93;4.25;;;13.90;99.90;;;;;;10363114;28;20228;-92
2023/09/19 21:44:42;;;;;;;4.40;2.65;;;13.90;99.90;;;;;;10384559;28;20239;-92
2023/09/19 21:49:47;;;;;;;10.80;4.28;;;14.10;99.90;;;;;;10393508;28;20315;-92
2023/09/19 21:54:53;;;;;;;7.03;3.42;;;14.20;99.90;;;;;;10410204;28;20703;-91
2023/09/19 21:59:56;;;;;;;5.95;2.80;;;13.90;99.90;;;;;;10377008;28;20255;-92
2023/09/19 22:05:01;;;;;;;3.10;2.30;;;13.90;99.90;;;;;;10342111;28;20287;-92
2023/09/19 22:10:04;;;;;;;2.78;2.25;;;14.00;99.90;;;;;;10312958;28;20236;-92
2023/09/19 22:15:12;;;;;;;11.07;5.05;;;14.00;99.90;;;;;;10329366;28;20570;-91
2023/09/19 22:20:28;;;;;;;4.00;2.95;;;14.10;99.90;;;;;;10330659;28;20278;-91
2023/09/19 22:25:36;;;;;;;8.85;3.58;;;14.00;99.90;;;;;;10312340;28;20220;-92
2023/09/19 22:30:46;;;;;;;4.63;2.83;;;14.00;99.90;;;;;;10349010;28;20313;-91
2023/09/19 22:35:51;;;;;;;7.75;4.15;;;14.00;99.90;;;;;;10331471;28;20205;-92
2023/09/19 22:41:10;;;;;;;8.50;3.67;;;14.00;99.90;;;;;;10351995;28;20204;-92
2023/09/19 22:46:17;;;;;;;6.85;3.10;;;14.00;99.90;;;;;;10337197;28;20263;-91
2023/09/19 22:51:23;;;;;;;8.65;4.05;;;14.00;99.90;;;;;;10343455;28;20225;-92
2023/09/19 22:56:27;;;;;;;5.90;4.13;;;14.20;99.90;;;;;;10333477;28;20588;-92
2023/09/19 23:01:35;;;;;;;6.20;3.58;;;13.90;99.90;;;;;;10334932;28;20212;-91
2023/09/19 23:06:51;;;;;;;10.15;4.00;;;13.70;99.90;;;;;;10340867;28;20249;-91
2023/09/19 23:12:06;;;;;;;10.23;4.10;;;13.90;99.90;;;;;;10299765;28;20208;-92
2023/09/19 23:17:13;;;;;;;5.40;3.50;;;13.90;99.90;;;;;;10317051;28;20208;-91
2023/09/19 23:27:24;;;;;;;5.63;3.95;;;13.90;99.90;;;;;;10332316;28;20232;-92
2023/09/19 23:32:28;;;;;;;3.90;2.35;;;13.90;99.90;;;;;;10316444;28;20577;-92
2023/09/19 23:37:30;;;;;;;6.13;3.55;;;13.90;99.90;;;;;;10323705;28;20232;-92
2023/09/19 23:42:33;;;;;;;7.47;3.35;;;13.80;99.90;;;;;;10363993;28;20308;-92
2023/09/19 23:47:36;;;;;;;4.25;3.20;;;13.70;99.90;;;;;;10381517;28;20220;-92
2023/09/19 23:52:39;;;;;;;4.43;2.70;;;13.60;99.90;;;;;;10398516;28;20188;-92
2023/09/19 23:57:42;;;;;;;3.13;2.83;;;13.90;99.90;;;;;;10395864;28;20184;-92
